sensor_id;sensor_type;location;lat;lon;timestamp;P1;durP1;ratioP1;P2;durP2;ratioP2
54909;SDS011;63189;51.240;9.964;2024-02-21T00:00:49;15.82;;;5.30;;
54909;SDS011;63189;51.240;9.964;2024-02-21T00:03:14;18.70;;;5.68;;
54909;SDS011;63189;51.240;9.964;2024-02-21T00:05:40;14.73;;;4.57;;
54909;SDS011;63189;51.240;9.964;2024-02-21T00:08:05;13.68;;;4.82;;
54909;SDS011;63189;51.240;9.964;2024-02-21T00:10:31;17.25;;;4.18;;
54909;SDS011;63189;51.240;9.964;2024-02-21T00:12:57;16.17;;;4.50;;
54909;SDS011;63189;51.240;9.964;2024-02-21T00:15:24;13.30;;;4.10;;
54909;SDS011;63189;51.240;9.964;2024-02-21T00:17:50;11.73;;;4.10;;
54909;SDS011;63189;51.240;9.964;2024-02-21T00:20:15;9.70;;;3.58;;
54909;SDS011;63189;51.240;9.964;2024-02-21T00:22:41;15.18;;;4.50;;
54909;SDS011;63189;51.240;9.964;2024-02-21T00:25:06;15.82;;;5.03;;
54909;SDS011;63189;51.240;9.964;2024-02-21T00:27:32;14.65;;;4.70;;
54909;SDS011;63189;51.240;9.964;2024-02-21T00:29:57;14.65;;;4.45;;
54909;SDS011;63189;51.240;9.964;2024-02-21T00:32:22;13.52;;;4.13;;
54909;SDS011;63189;51.240;9.964;2024-02-21T00:34:48;19.02;;;4.72;;
54909;SDS011;63189;51.240;9.964;2024-02-21T00:37:13;14.50;;;4.63;;
54909;SDS011;63189;51.240;9.964;2024-02-21T00:39:38;11.10;;;4.45;;
54909;SDS011;63189;51.240;9.964;2024-02-21T00:42:04;17.42;;;4.25;;
54909;SDS011;63189;51.240;9.964;2024-02-21T00:44:29;15.50;;;4.80;;
54909;SDS011;63189;51.240;9.964;2024-02-21T00:46:55;13.95;;;4.70;;
54909;SDS011;63189;51.240;9.964;2024-02-21T00:49:20;11.63;;;4.38;;
54909;SDS011;63189;51.240;9.964;2024-02-21T00:51:46;13.32;;;4.50;;
54909;SDS011;63189;51.240;9.964;2024-02-21T00:54:11;13.98;;;5.20;;
54909;SDS011;63189;51.240;9.964;2024-02-21T00:56:37;12.65;;;4.43;;
54909;SDS011;63189;51.240;9.964;2024-02-21T00:59:02;16.08;;;5.28;;
54909;SDS011;63189;51.240;9.964;2024-02-21T01:01:27;10.10;;;4.10;;
54909;SDS011;63189;51.240;9.964;2024-02-21T01:03:53;16.73;;;5.60;;
54909;SDS011;63189;51.240;9.964;2024-02-21T01:06:19;16.15;;;4.45;;
54909;SDS011;63189;51.240;9.964;2024-02-21T01:08:45;10.57;;;4.10;;
54909;SDS011;63189;51.240;9.964;2024-02-21T01:11:12;11.73;;;5.07;;
54909;SDS011;63189;51.240;9.964;2024-02-21T01:13:37;13.73;;;4.82;;
54909;SDS011;63189;51.240;9.964;2024-02-21T01:16:03;12.10;;;4.65;;
54909;SDS011;63189;51.240;9.964;2024-02-21T01:18:28;14.30;;;5.20;;
54909;SDS011;63189;51.240;9.964;2024-02-21T01:20:53;19.38;;;5.70;;
54909;SDS011;63189;51.240;9.964;2024-02-21T01:23:19;18.77;;;5.85;;
54909;SDS011;63189;51.240;9.964;2024-02-21T01:25:44;13.85;;;5.22;;
54909;SDS011;63189;51.240;9.964;2024-02-21T01:28:09;13.70;;;5.38;;
54909;SDS011;63189;51.240;9.964;2024-02-21T01:30:35;15.57;;;5.15;;
54909;SDS011;63189;51.240;9.964;2024-02-21T01:33:00;19.00;;;5.88;;
54909;SDS011;63189;51.240;9.964;2024-02-21T01:35:25;14.93;;;5.47;;
54909;SDS011;63189;51.240;9.964;2024-02-21T01:37:50;16.30;;;5.32;;
54909;SDS011;63189;51.240;9.964;2024-02-21T01:40:16;17.23;;;5.88;;
54909;SDS011;63189;51.240;9.964;2024-02-21T01:42:42;14.02;;;5.93;;
54909;SDS011;63189;51.240;9.964;2024-02-21T01:45:08;13.65;;;4.80;;
54909;SDS011;63189;51.240;9.964;2024-02-21T01:47:33;15.75;;;6.15;;
54909;SDS011;63189;51.240;9.964;2024-02-21T01:49:59;20.50;;;6.50;;
54909;SDS011;63189;51.240;9.964;2024-02-21T01:52:26;16.10;;;5.80;;
54909;SDS011;63189;51.240;9.964;2024-02-21T01:54:52;17.27;;;6.55;;
54909;SDS011;63189;51.240;9.964;2024-02-21T01:57:18;17.25;;;6.10;;
54909;SDS011;63189;51.240;9.964;2024-02-21T01:59:43;16.08;;;6.05;;
54909;SDS011;63189;51.240;9.964;2024-02-21T02:02:08;19.65;;;6.80;;
54909;SDS011;63189;51.240;9.964;2024-02-21T02:04:34;20.08;;;6.50;;
54909;SDS011;63189;51.240;9.964;2024-02-21T02:07:00;19.55;;;7.35;;
54909;SDS011;63189;51.240;9.964;2024-02-21T02:09:29;19.52;;;7.57;;
54909;SDS011;63189;51.240;9.964;2024-02-21T02:11:54;17.23;;;7.28;;
54909;SDS011;63189;51.240;9.964;2024-02-21T02:14:19;21.30;;;7.47;;
54909;SDS011;63189;51.240;9.964;2024-02-21T02:16:48;19.20;;;6.25;;
54909;SDS011;63189;51.240;9.964;2024-02-21T02:19:13;20.30;;;7.70;;
54909;SDS011;63189;51.240;9.964;2024-02-21T02:21:41;18.95;;;6.65;;
54909;SDS011;63189;51.240;9.964;2024-02-21T02:24:11;18.73;;;5.97;;
54909;SDS011;63189;51.240;9.964;2024-02-21T02:26:39;18.08;;;6.63;;
54909;SDS011;63189;51.240;9.964;2024-02-21T02:29:04;17.88;;;6.47;;
54909;SDS011;63189;51.240;9.964;2024-02-21T02:31:30;16.00;;;5.85;;
54909;SDS011;63189;51.240;9.964;2024-02-21T02:33:55;21.75;;;6.70;;
54909;SDS011;63189;51.240;9.964;2024-02-21T02:36:21;21.20;;;7.00;;
54909;SDS011;63189;51.240;9.964;2024-02-21T02:38:46;15.48;;;7.28;;
54909;SDS011;63189;51.240;9.964;2024-02-21T02:41:11;19.92;;;7.03;;
54909;SDS011;63189;51.240;9.964;2024-02-21T02:43:36;15.15;;;6.85;;
54909;SDS011;63189;51.240;9.964;2024-02-21T02:46:02;27.50;;;8.45;;
54909;SDS011;63189;51.240;9.964;2024-02-21T02:48:28;17.42;;;7.88;;
54909;SDS011;63189;51.240;9.964;2024-02-21T02:50:54;20.42;;;7.45;;
54909;SDS011;63189;51.240;9.964;2024-02-21T02:53:19;18.52;;;7.30;;
54909;SDS011;63189;51.240;9.964;2024-02-21T02:55:44;21.25;;;7.32;;
54909;SDS011;63189;51.240;9.964;2024-02-21T02:58:10;20.45;;;7.47;;
54909;SDS011;63189;51.240;9.964;2024-02-21T03:00:35;23.30;;;7.72;;
54909;SDS011;63189;51.240;9.964;2024-02-21T03:03:01;18.25;;;8.50;;
54909;SDS011;63189;51.240;9.964;2024-02-21T03:05:30;20.80;;;8.02;;
54909;SDS011;63189;51.240;9.964;2024-02-21T03:07:55;20.02;;;7.57;;
54909;SDS011;63189;51.240;9.964;2024-02-21T03:10:20;18.85;;;8.00;;
54909;SDS011;63189;51.240;9.964;2024-02-21T03:12:46;22.10;;;8.07;;
54909;SDS011;63189;51.240;9.964;2024-02-21T03:15:13;17.42;;;7.07;;
54909;SDS011;63189;51.240;9.964;2024-02-21T03:17:39;20.38;;;8.52;;
54909;SDS011;63189;51.240;9.964;2024-02-21T03:20:05;23.55;;;8.38;;
54909;SDS011;63189;51.240;9.964;2024-02-21T03:22:33;20.40;;;8.15;;
54909;SDS011;63189;51.240;9.964;2024-02-21T03:24:58;17.38;;;7.55;;
54909;SDS011;63189;51.240;9.964;2024-02-21T03:27:24;15.38;;;7.40;;
54909;SDS011;63189;51.240;9.964;2024-02-21T03:29:49;16.83;;;7.45;;
54909;SDS011;63189;51.240;9.964;2024-02-21T03:32:14;20.15;;;7.63;;
54909;SDS011;63189;51.240;9.964;2024-02-21T03:34:40;17.77;;;7.07;;
54909;SDS011;63189;51.240;9.964;2024-02-21T03:37:05;22.40;;;7.57;;
54909;SDS011;63189;51.240;9.964;2024-02-21T03:39:31;19.30;;;8.25;;
54909;SDS011;63189;51.240;9.964;2024-02-21T03:41:57;20.58;;;7.72;;
54909;SDS011;63189;51.240;9.964;2024-02-21T03:44:23;21.08;;;9.10;;
54909;SDS011;63189;51.240;9.964;2024-02-21T03:46:48;16.73;;;7.60;;
54909;SDS011;63189;51.240;9.964;2024-02-21T03:49:13;20.33;;;8.25;;
54909;SDS011;63189;51.240;9.964;2024-02-21T03:51:39;20.85;;;8.30;;
54909;SDS011;63189;51.240;9.964;2024-02-21T03:54:04;22.77;;;8.73;;
54909;SDS011;63189;51.240;9.964;2024-02-21T03:56:29;17.20;;;6.88;;
54909;SDS011;63189;51.240;9.964;2024-02-21T03:58:55;21.05;;;8.00;;
54909;SDS011;63189;51.240;9.964;2024-02-21T04:01:20;22.08;;;8.38;;
54909;SDS011;63189;51.240;9.964;2024-02-21T04:03:45;17.63;;;7.75;;
54909;SDS011;63189;51.240;9.964;2024-02-21T04:06:11;21.30;;;7.50;;
54909;SDS011;63189;51.240;9.964;2024-02-21T04:08:37;18.58;;;8.15;;
54909;SDS011;63189;51.240;9.964;2024-02-21T04:11:02;19.02;;;7.90;;
54909;SDS011;63189;51.240;9.964;2024-02-21T04:13:27;18.27;;;9.20;;
54909;SDS011;63189;51.240;9.964;2024-02-21T04:15:53;20.63;;;7.82;;
54909;SDS011;63189;51.240;9.964;2024-02-21T04:18:18;17.85;;;7.97;;
54909;SDS011;63189;51.240;9.964;2024-02-21T04:20:44;17.88;;;7.70;;
54909;SDS011;63189;51.240;9.964;2024-02-21T04:23:09;19.45;;;8.43;;
54909;SDS011;63189;51.240;9.964;2024-02-21T04:25:35;19.35;;;8.35;;
54909;SDS011;63189;51.240;9.964;2024-02-21T04:28:01;18.48;;;8.73;;
54909;SDS011;63189;51.240;9.964;2024-02-21T04:30:26;20.27;;;8.57;;
54909;SDS011;63189;51.240;9.964;2024-02-21T04:32:51;17.17;;;7.97;;
54909;SDS011;63189;51.240;9.964;2024-02-21T04:35:17;19.48;;;7.97;;
54909;SDS011;63189;51.240;9.964;2024-02-21T04:37:42;21.65;;;7.93;;
54909;SDS011;63189;51.240;9.964;2024-02-21T04:40:07;18.35;;;8.10;;
54909;SDS011;63189;51.240;9.964;2024-02-21T04:42:34;23.33;;;9.02;;
54909;SDS011;63189;51.240;9.964;2024-02-21T04:44:59;19.08;;;7.82;;
54909;SDS011;63189;51.240;9.964;2024-02-21T04:47:24;20.05;;;8.68;;
54909;SDS011;63189;51.240;9.964;2024-02-21T04:49:50;22.27;;;9.45;;
54909;SDS011;63189;51.240;9.964;2024-02-21T04:52:15;23.67;;;9.40;;
54909;SDS011;63189;51.240;9.964;2024-02-21T04:54:41;26.13;;;9.52;;
54909;SDS011;63189;51.240;9.964;2024-02-21T04:57:06;23.00;;;9.20;;
54909;SDS011;63189;51.240;9.964;2024-02-21T04:59:31;21.02;;;9.82;;
54909;SDS011;63189;51.240;9.964;2024-02-21T05:01:57;20.02;;;8.70;;
54909;SDS011;63189;51.240;9.964;2024-02-21T05:04:23;19.95;;;8.75;;
54909;SDS011;63189;51.240;9.964;2024-02-21T05:06:49;21.60;;;8.63;;
54909;SDS011;63189;51.240;9.964;2024-02-21T05:09:14;20.77;;;9.32;;
54909;SDS011;63189;51.240;9.964;2024-02-21T05:11:40;23.13;;;9.65;;
54909;SDS011;63189;51.240;9.964;2024-02-21T05:14:05;22.00;;;8.63;;
54909;SDS011;63189;51.240;9.964;2024-02-21T05:16:31;21.13;;;9.25;;
54909;SDS011;63189;51.240;9.964;2024-02-21T05:18:56;18.38;;;7.82;;
54909;SDS011;63189;51.240;9.964;2024-02-21T05:21:25;19.38;;;8.73;;
54909;SDS011;63189;51.240;9.964;2024-02-21T05:23:51;17.92;;;8.23;;
54909;SDS011;63189;51.240;9.964;2024-02-21T05:26:23;18.80;;;7.88;;
54909;SDS011;63189;51.240;9.964;2024-02-21T05:28:49;15.70;;;7.75;;
54909;SDS011;63189;51.240;9.964;2024-02-21T05:31:15;21.30;;;8.20;;
54909;SDS011;63189;51.240;9.964;2024-02-21T05:33:44;13.70;;;7.28;;
54909;SDS011;63189;51.240;9.964;2024-02-21T05:36:10;23.50;;;9.25;;
54909;SDS011;63189;51.240;9.964;2024-02-21T05:38:36;18.80;;;8.65;;
54909;SDS011;63189;51.240;9.964;2024-02-21T05:41:02;16.77;;;7.97;;
54909;SDS011;63189;51.240;9.964;2024-02-21T05:43:27;19.50;;;7.75;;
54909;SDS011;63189;51.240;9.964;2024-02-21T05:45:53;16.65;;;8.07;;
54909;SDS011;63189;51.240;9.964;2024-02-21T05:48:18;17.80;;;7.75;;
54909;SDS011;63189;51.240;9.964;2024-02-21T05:50:43;16.38;;;7.50;;
54909;SDS011;63189;51.240;9.964;2024-02-21T05:53:09;18.67;;;8.75;;
54909;SDS011;63189;51.240;9.964;2024-02-21T05:55:35;14.20;;;6.68;;
54909;SDS011;63189;51.240;9.964;2024-02-21T05:58:00;20.08;;;7.97;;
54909;SDS011;63189;51.240;9.964;2024-02-21T06:00:26;15.57;;;7.25;;
54909;SDS011;63189;51.240;9.964;2024-02-21T06:02:51;19.13;;;7.75;;
54909;SDS011;63189;51.240;9.964;2024-02-21T06:05:16;14.57;;;7.20;;
54909;SDS011;63189;51.240;9.964;2024-02-21T06:07:42;17.05;;;7.25;;
54909;SDS011;63189;51.240;9.964;2024-02-21T06:10:07;14.93;;;7.32;;
54909;SDS011;63189;51.240;9.964;2024-02-21T06:12:34;15.35;;;7.47;;
54909;SDS011;63189;51.240;9.964;2024-02-21T06:14:59;16.00;;;7.65;;
54909;SDS011;63189;51.240;9.964;2024-02-21T06:17:25;13.48;;;6.68;;
54909;SDS011;63189;51.240;9.964;2024-02-21T06:19:50;16.77;;;7.03;;
54909;SDS011;63189;51.240;9.964;2024-02-21T06:22:15;22.25;;;7.57;;
54909;SDS011;63189;51.240;9.964;2024-02-21T06:24:41;19.33;;;7.35;;
54909;SDS011;63189;51.240;9.964;2024-02-21T06:27:06;12.73;;;6.28;;
54909;SDS011;63189;51.240;9.964;2024-02-21T06:29:32;17.27;;;7.80;;
54909;SDS011;63189;51.240;9.964;2024-02-21T06:31:58;17.58;;;6.82;;
54909;SDS011;63189;51.240;9.964;2024-02-21T06:34:23;21.23;;;8.57;;
54909;SDS011;63189;51.240;9.964;2024-02-21T06:36:49;14.43;;;6.88;;
54909;SDS011;63189;51.240;9.964;2024-02-21T06:39:15;20.73;;;7.90;;
54909;SDS011;63189;51.240;9.964;2024-02-21T06:41:40;11.02;;;6.15;;
54909;SDS011;63189;51.240;9.964;2024-02-21T06:44:05;11.52;;;6.07;;
54909;SDS011;63189;51.240;9.964;2024-02-21T06:46:31;15.45;;;6.80;;
54909;SDS011;63189;51.240;9.964;2024-02-21T06:48:58;13.45;;;5.65;;
54909;SDS011;63189;51.240;9.964;2024-02-21T06:51:28;10.77;;;5.65;;
54909;SDS011;63189;51.240;9.964;2024-02-21T06:53:54;11.60;;;5.43;;
54909;SDS011;63189;51.240;9.964;2024-02-21T06:56:20;14.48;;;5.65;;
54909;SDS011;63189;51.240;9.964;2024-02-21T06:58:45;12.40;;;5.93;;
54909;SDS011;63189;51.240;9.964;2024-02-21T07:01:11;12.40;;;5.82;;
54909;SDS011;63189;51.240;9.964;2024-02-21T07:03:36;10.23;;;5.43;;
54909;SDS011;63189;51.240;9.964;2024-02-21T07:06:02;8.63;;;4.93;;
54909;SDS011;63189;51.240;9.964;2024-02-21T07:08:27;14.15;;;6.10;;
54909;SDS011;63189;51.240;9.964;2024-02-21T07:10:53;14.80;;;6.30;;
54909;SDS011;63189;51.240;9.964;2024-02-21T07:13:18;9.85;;;5.50;;
54909;SDS011;63189;51.240;9.964;2024-02-21T07:15:44;11.45;;;5.47;;
54909;SDS011;63189;51.240;9.964;2024-02-21T07:18:09;15.93;;;6.20;;
54909;SDS011;63189;51.240;9.964;2024-02-21T07:20:34;14.40;;;6.10;;
54909;SDS011;63189;51.240;9.964;2024-02-21T07:23:02;10.63;;;5.35;;
54909;SDS011;63189;51.240;9.964;2024-02-21T07:25:28;19.80;;;6.15;;
54909;SDS011;63189;51.240;9.964;2024-02-21T07:27:53;10.43;;;5.57;;
54909;SDS011;63189;51.240;9.964;2024-02-21T07:30:18;11.32;;;5.57;;
54909;SDS011;63189;51.240;9.964;2024-02-21T07:32:44;19.38;;;6.25;;
54909;SDS011;63189;51.240;9.964;2024-02-21T07:35:09;15.13;;;5.97;;
54909;SDS011;63189;51.240;9.964;2024-02-21T07:37:36;11.40;;;5.15;;
54909;SDS011;63189;51.240;9.964;2024-02-21T07:40:03;14.88;;;5.95;;
54909;SDS011;63189;51.240;9.964;2024-02-21T07:42:30;14.35;;;5.43;;
54909;SDS011;63189;51.240;9.964;2024-02-21T07:44:55;12.82;;;5.45;;
54909;SDS011;63189;51.240;9.964;2024-02-21T07:47:21;10.95;;;5.22;;
54909;SDS011;63189;51.240;9.964;2024-02-21T07:49:47;11.18;;;5.90;;
54909;SDS011;63189;51.240;9.964;2024-02-21T07:52:13;14.85;;;5.55;;
54909;SDS011;63189;51.240;9.964;2024-02-21T07:54:39;16.40;;;6.13;;
54909;SDS011;63189;51.240;9.964;2024-02-21T07:57:04;13.13;;;5.93;;
54909;SDS011;63189;51.240;9.964;2024-02-21T07:59:30;13.75;;;6.07;;
54909;SDS011;63189;51.240;9.964;2024-02-21T08:01:56;13.45;;;5.90;;
54909;SDS011;63189;51.240;9.964;2024-02-21T08:04:22;11.00;;;5.30;;
54909;SDS011;63189;51.240;9.964;2024-02-21T08:06:51;14.50;;;6.32;;
54909;SDS011;63189;51.240;9.964;2024-02-21T08:09:20;10.70;;;5.10;;
54909;SDS011;63189;51.240;9.964;2024-02-21T08:11:46;16.08;;;6.47;;
54909;SDS011;63189;51.240;9.964;2024-02-21T08:14:11;13.15;;;5.90;;
54909;SDS011;63189;51.240;9.964;2024-02-21T08:16:36;12.93;;;5.45;;
54909;SDS011;63189;51.240;9.964;2024-02-21T08:19:02;12.20;;;5.30;;
54909;SDS011;63189;51.240;9.964;2024-02-21T08:21:29;13.52;;;6.55;;
54909;SDS011;63189;51.240;9.964;2024-02-21T08:23:54;13.50;;;5.45;;
54909;SDS011;63189;51.240;9.964;2024-02-21T08:26:20;13.48;;;5.00;;
54909;SDS011;63189;51.240;9.964;2024-02-21T08:28:45;12.90;;;5.45;;
54909;SDS011;63189;51.240;9.964;2024-02-21T08:31:10;14.95;;;5.63;;
54909;SDS011;63189;51.240;9.964;2024-02-21T08:33:36;12.35;;;5.28;;
54909;SDS011;63189;51.240;9.964;2024-02-21T08:36:01;13.40;;;5.65;;
54909;SDS011;63189;51.240;9.964;2024-02-21T08:38:26;9.75;;;4.53;;
54909;SDS011;63189;51.240;9.964;2024-02-21T08:40:52;14.63;;;6.30;;
54909;SDS011;63189;51.240;9.964;2024-02-21T08:43:17;12.52;;;4.53;;
54909;SDS011;63189;51.240;9.964;2024-02-21T08:45:42;12.35;;;5.22;;
54909;SDS011;63189;51.240;9.964;2024-02-21T08:48:08;8.63;;;4.45;;
54909;SDS011;63189;51.240;9.964;2024-02-21T08:50:33;11.55;;;4.38;;
54909;SDS011;63189;51.240;9.964;2024-02-21T08:52:58;15.35;;;5.30;;
54909;SDS011;63189;51.240;9.964;2024-02-21T08:55:24;14.45;;;5.20;;
54909;SDS011;63189;51.240;9.964;2024-02-21T08:57:49;13.68;;;4.85;;
54909;SDS011;63189;51.240;9.964;2024-02-21T09:00:15;11.82;;;4.78;;
54909;SDS011;63189;51.240;9.964;2024-02-21T09:02:41;10.70;;;4.68;;
54909;SDS011;63189;51.240;9.964;2024-02-21T09:05:10;14.52;;;4.78;;
54909;SDS011;63189;51.240;9.964;2024-02-21T09:07:36;11.88;;;4.88;;
54909;SDS011;63189;51.240;9.964;2024-02-21T09:10:01;13.48;;;5.05;;
54909;SDS011;63189;51.240;9.964;2024-02-21T09:12:26;12.57;;;3.97;;
54909;SDS011;63189;51.240;9.964;2024-02-21T09:14:52;8.43;;;4.25;;
54909;SDS011;63189;51.240;9.964;2024-02-21T09:17:17;14.05;;;4.85;;
54909;SDS011;63189;51.240;9.964;2024-02-21T09:19:43;8.40;;;4.03;;
54909;SDS011;63189;51.240;9.964;2024-02-21T09:22:09;9.45;;;4.13;;
54909;SDS011;63189;51.240;9.964;2024-02-21T09:24:34;8.05;;;3.60;;
54909;SDS011;63189;51.240;9.964;2024-02-21T09:27:00;9.27;;;3.88;;
54909;SDS011;63189;51.240;9.964;2024-02-21T09:29:25;10.75;;;4.00;;
54909;SDS011;63189;51.240;9.964;2024-02-21T09:31:50;8.45;;;3.95;;
54909;SDS011;63189;51.240;9.964;2024-02-21T09:34:16;9.85;;;3.78;;
54909;SDS011;63189;51.240;9.964;2024-02-21T09:36:41;11.57;;;3.88;;
54909;SDS011;63189;51.240;9.964;2024-02-21T09:39:07;8.57;;;3.38;;
54909;SDS011;63189;51.240;9.964;2024-02-21T09:41:32;7.95;;;3.60;;
54909;SDS011;63189;51.240;9.964;2024-02-21T09:44:04;12.00;;;3.60;;
54909;SDS011;63189;51.240;9.964;2024-02-21T09:47:17;10.35;;;3.40;;
54909;SDS011;63189;51.240;9.964;2024-02-21T09:49:35;7.35;;;3.22;;
54909;SDS011;63189;51.240;9.964;2024-02-21T09:52:04;10.02;;;3.45;;
54909;SDS011;63189;51.240;9.964;2024-02-21T09:54:32;9.10;;;3.70;;
54909;SDS011;63189;51.240;9.964;2024-02-21T09:57:01;9.48;;;3.22;;
54909;SDS011;63189;51.240;9.964;2024-02-21T09:59:31;7.78;;;3.40;;
54909;SDS011;63189;51.240;9.964;2024-02-21T10:01:57;7.70;;;3.40;;
54909;SDS011;63189;51.240;9.964;2024-02-21T10:04:25;9.25;;;3.55;;
54909;SDS011;63189;51.240;9.964;2024-02-21T10:06:51;10.05;;;3.38;;
54909;SDS011;63189;51.240;9.964;2024-02-21T10:09:20;8.05;;;3.28;;
54909;SDS011;63189;51.240;9.964;2024-02-21T10:11:47;7.32;;;2.83;;
54909;SDS011;63189;51.240;9.964;2024-02-21T10:14:13;13.55;;;3.35;;
54909;SDS011;63189;51.240;9.964;2024-02-21T10:16:40;10.07;;;3.40;;
54909;SDS011;63189;51.240;9.964;2024-02-21T10:19:05;7.60;;;2.95;;
54909;SDS011;63189;51.240;9.964;2024-02-21T10:21:31;10.70;;;3.60;;
54909;SDS011;63189;51.240;9.964;2024-02-21T10:23:56;8.20;;;3.10;;
54909;SDS011;63189;51.240;9.964;2024-02-21T10:26:21;8.60;;;2.67;;
54909;SDS011;63189;51.240;9.964;2024-02-21T10:28:47;11.13;;;3.00;;
54909;SDS011;63189;51.240;9.964;2024-02-21T10:31:25;7.75;;;3.10;;
54909;SDS011;63189;51.240;9.964;2024-02-21T10:33:55;8.35;;;2.53;;
54909;SDS011;63189;51.240;9.964;2024-02-21T10:36:25;6.87;;;2.27;;
54909;SDS011;63189;51.240;9.964;2024-02-21T10:38:51;11.02;;;2.92;;
54909;SDS011;63189;51.240;9.964;2024-02-21T10:41:17;4.25;;;2.08;;
54909;SDS011;63189;51.240;9.964;2024-02-21T10:43:46;9.48;;;2.80;;
54909;SDS011;63189;51.240;9.964;2024-02-21T10:46:14;9.50;;;3.00;;
54909;SDS011;63189;51.240;9.964;2024-02-21T10:48:44;9.80;;;2.85;;
54909;SDS011;63189;51.240;9.964;2024-02-21T10:51:17;6.30;;;2.47;;
54909;SDS011;63189;51.240;9.964;2024-02-21T10:56:35;10.85;;;3.50;;
54909;SDS011;63189;51.240;9.964;2024-02-21T10:59:06;7.25;;;3.10;;
54909;SDS011;63189;51.240;9.964;2024-02-21T11:01:33;9.57;;;2.58;;
54909;SDS011;63189;51.240;9.964;2024-02-21T11:04:04;6.47;;;2.55;;
54909;SDS011;63189;51.240;9.964;2024-02-21T11:06:31;8.15;;;3.17;;
54909;SDS011;63189;51.240;9.964;2024-02-21T11:09:06;6.65;;;2.88;;
54909;SDS011;63189;51.240;9.964;2024-02-21T11:11:35;8.80;;;2.80;;
54909;SDS011;63189;51.240;9.964;2024-02-21T11:14:10;7.10;;;3.85;;
54909;SDS011;63189;51.240;9.964;2024-02-21T11:16:42;8.68;;;3.75;;
54909;SDS011;63189;51.240;9.964;2024-02-21T11:19:08;8.20;;;3.88;;
54909;SDS011;63189;51.240;9.964;2024-02-21T11:21:54;11.50;;;3.63;;
54909;SDS011;63189;51.240;9.964;2024-02-21T11:24:31;9.80;;;3.55;;
54909;SDS011;63189;51.240;9.964;2024-02-21T11:27:08;8.93;;;3.47;;
54909;SDS011;63189;51.240;9.964;2024-02-21T11:29:47;7.85;;;3.38;;
54909;SDS011;63189;51.240;9.964;2024-02-21T11:32:19;13.50;;;4.10;;
54909;SDS011;63189;51.240;9.964;2024-02-21T11:35:06;12.98;;;4.07;;
54909;SDS011;63189;51.240;9.964;2024-02-21T11:37:31;8.77;;;3.90;;
54909;SDS011;63189;51.240;9.964;2024-02-21T11:40:05;13.18;;;4.63;;
54909;SDS011;63189;51.240;9.964;2024-02-21T11:42:35;13.23;;;4.75;;
54909;SDS011;63189;51.240;9.964;2024-02-21T11:45:00;14.80;;;4.95;;
54909;SDS011;63189;51.240;9.964;2024-02-21T11:47:27;11.75;;;4.38;;
54909;SDS011;63189;51.240;9.964;2024-02-21T11:49:53;16.80;;;4.70;;
54909;SDS011;63189;51.240;9.964;2024-02-21T11:52:21;10.50;;;4.78;;
54909;SDS011;63189;51.240;9.964;2024-02-21T11:54:49;12.10;;;4.57;;
54909;SDS011;63189;51.240;9.964;2024-02-21T11:57:15;16.83;;;4.03;;
54909;SDS011;63189;51.240;9.964;2024-02-21T11:59:40;11.27;;;3.88;;
54909;SDS011;63189;51.240;9.964;2024-02-21T12:02:06;10.75;;;4.15;;
54909;SDS011;63189;51.240;9.964;2024-02-21T12:04:31;8.10;;;3.72;;
54909;SDS011;63189;51.240;9.964;2024-02-21T12:06:57;12.57;;;4.47;;
54909;SDS011;63189;51.240;9.964;2024-02-21T12:09:23;11.13;;;4.18;;
54909;SDS011;63189;51.240;9.964;2024-02-21T12:11:59;12.63;;;3.65;;
54909;SDS011;63189;51.240;9.964;2024-02-21T12:14:24;11.55;;;4.40;;
54909;SDS011;63189;51.240;9.964;2024-02-21T12:16:50;12.45;;;4.28;;
54909;SDS011;63189;51.240;9.964;2024-02-21T12:19:15;10.50;;;3.95;;
54909;SDS011;63189;51.240;9.964;2024-02-21T12:21:42;13.70;;;4.00;;
54909;SDS011;63189;51.240;9.964;2024-02-21T12:24:14;9.32;;;3.97;;
54909;SDS011;63189;51.240;9.964;2024-02-21T12:26:40;10.10;;;3.92;;
54909;SDS011;63189;51.240;9.964;2024-02-21T12:29:06;11.18;;;4.40;;
54909;SDS011;63189;51.240;9.964;2024-02-21T12:31:34;10.23;;;3.63;;
54909;SDS011;63189;51.240;9.964;2024-02-21T12:34:01;7.97;;;3.45;;
54909;SDS011;63189;51.240;9.964;2024-02-21T12:36:26;10.43;;;3.88;;
54909;SDS011;63189;51.240;9.964;2024-02-21T12:38:51;9.35;;;3.72;;
54909;SDS011;63189;51.240;9.964;2024-02-21T12:41:16;9.18;;;3.67;;
54909;SDS011;63189;51.240;9.964;2024-02-21T12:43:42;13.95;;;3.60;;
54909;SDS011;63189;51.240;9.964;2024-02-21T12:46:07;10.52;;;3.53;;
54909;SDS011;63189;51.240;9.964;2024-02-21T12:48:33;11.85;;;3.20;;
54909;SDS011;63189;51.240;9.964;2024-02-21T12:50:59;9.70;;;2.65;;
54909;SDS011;63189;51.240;9.964;2024-02-21T12:53:24;13.27;;;3.78;;
54909;SDS011;63189;51.240;9.964;2024-02-21T12:55:50;10.32;;;3.53;;
54909;SDS011;63189;51.240;9.964;2024-02-21T12:58:15;8.30;;;2.97;;
54909;SDS011;63189;51.240;9.964;2024-02-21T13:00:41;8.40;;;2.90;;
54909;SDS011;63189;51.240;9.964;2024-02-21T13:03:06;10.70;;;3.47;;
54909;SDS011;63189;51.240;9.964;2024-02-21T13:05:32;9.63;;;3.25;;
54909;SDS011;63189;51.240;9.964;2024-02-21T13:08:00;13.57;;;3.80;;
54909;SDS011;63189;51.240;9.964;2024-02-21T13:10:26;11.50;;;3.17;;
54909;SDS011;63189;51.240;9.964;2024-02-21T13:12:51;10.60;;;3.72;;
54909;SDS011;63189;51.240;9.964;2024-02-21T13:15:17;9.02;;;3.72;;
54909;SDS011;63189;51.240;9.964;2024-02-21T13:17:45;10.98;;;3.40;;
54909;SDS011;63189;51.240;9.964;2024-02-21T13:20:11;11.05;;;4.30;;
54909;SDS011;63189;51.240;9.964;2024-02-21T13:22:37;19.58;;;3.85;;
54909;SDS011;63189;51.240;9.964;2024-02-21T13:25:03;12.32;;;3.83;;
54909;SDS011;63189;51.240;9.964;2024-02-21T13:27:30;9.43;;;4.70;;
54909;SDS011;63189;51.240;9.964;2024-02-21T13:29:55;8.18;;;4.20;;
54909;SDS011;63189;51.240;9.964;2024-02-21T13:32:21;9.85;;;4.05;;
54909;SDS011;63189;51.240;9.964;2024-02-21T13:34:46;11.18;;;3.80;;
54909;SDS011;63189;51.240;9.964;2024-02-21T13:37:12;13.35;;;4.80;;
54909;SDS011;63189;51.240;9.964;2024-02-21T13:39:38;9.20;;;4.85;;
54909;SDS011;63189;51.240;9.964;2024-02-21T13:42:04;10.75;;;4.97;;
54909;SDS011;63189;51.240;9.964;2024-02-21T13:44:31;11.05;;;3.95;;
54909;SDS011;63189;51.240;9.964;2024-02-21T13:46:59;9.55;;;4.80;;
54909;SDS011;63189;51.240;9.964;2024-02-21T13:49:25;9.43;;;4.28;;
54909;SDS011;63189;51.240;9.964;2024-02-21T13:51:50;10.07;;;4.57;;
54909;SDS011;63189;51.240;9.964;2024-02-21T13:54:16;10.93;;;4.82;;
54909;SDS011;63189;51.240;9.964;2024-02-21T13:56:44;9.05;;;4.07;;
54909;SDS011;63189;51.240;9.964;2024-02-21T13:59:11;9.88;;;5.00;;
54909;SDS011;63189;51.240;9.964;2024-02-21T14:01:38;10.75;;;4.90;;
54909;SDS011;63189;51.240;9.964;2024-02-21T14:04:04;11.13;;;4.65;;
54909;SDS011;63189;51.240;9.964;2024-02-21T14:06:29;10.70;;;4.60;;
54909;SDS011;63189;51.240;9.964;2024-02-21T14:08:54;11.30;;;4.90;;
54909;SDS011;63189;51.240;9.964;2024-02-21T14:11:20;14.25;;;5.20;;
54909;SDS011;63189;51.240;9.964;2024-02-21T14:13:45;10.75;;;4.70;;
54909;SDS011;63189;51.240;9.964;2024-02-21T14:16:11;10.63;;;4.13;;
54909;SDS011;63189;51.240;9.964;2024-02-21T14:18:39;10.80;;;4.80;;
54909;SDS011;63189;51.240;9.964;2024-02-21T14:21:08;7.30;;;3.88;;
54909;SDS011;63189;51.240;9.964;2024-02-21T14:23:37;9.25;;;4.32;;
54909;SDS011;63189;51.240;9.964;2024-02-21T14:26:03;7.88;;;3.95;;
54909;SDS011;63189;51.240;9.964;2024-02-21T14:28:29;8.30;;;4.80;;
54909;SDS011;63189;51.240;9.964;2024-02-21T14:30:54;9.73;;;4.57;;
54909;SDS011;63189;51.240;9.964;2024-02-21T14:33:22;10.13;;;4.43;;
54909;SDS011;63189;51.240;9.964;2024-02-21T14:35:49;10.95;;;4.63;;